sensor_id;sensor_type;location;lat;lon;timestamp;pressure;altitude;pressure_sealevel;temperature
12126;BMP180;6126;57.908;16.490;2023-05-07T00:00:22;102966.31;;;-0.58
12126;BMP180;6126;57.908;16.490;2023-05-07T00:02:48;102976.56;;;-0.58
12126;BMP180;6126;57.908;16.490;2023-05-07T00:05:14;102970.53;;;-0.60
12126;BMP180;6126;57.908;16.490;2023-05-07T00:07:40;102969.59;;;-0.62
12126;BMP180;6126;57.908;16.490;2023-05-07T00:10:07;102963.59;;;-0.62
12126;BMP180;6126;57.908;16.490;2023-05-07T00:12:33;102966.19;;;-0.61
12126;BMP180;6126;57.908;16.490;2023-05-07T00:15:02;102966.25;;;-0.59
12126;BMP180;6126;57.908;16.490;2023-05-07T00:17:29;102963.69;;;-0.59
12126;BMP180;6126;57.908;16.490;2023-05-07T00:19:55;102959.31;;;-0.62
12126;BMP180;6126;57.908;16.490;2023-05-07T00:22:21;102961.06;;;-0.61
12126;BMP180;6126;57.908;16.490;2023-05-07T00:24:47;102962.84;;;-0.60
12126;BMP180;6126;57.908;16.490;2023-05-07T00:27:12;102956.66;;;-0.64
12126;BMP180;6126;57.908;16.490;2023-05-07T00:29:39;102965.03;;;-0.68
12126;BMP180;6126;57.908;16.490;2023-05-07T00:32:05;102953.16;;;-0.66
12126;BMP180;6126;57.908;16.490;2023-05-07T00:34:30;102960.88;;;-0.65
12126;BMP180;6126;57.908;16.490;2023-05-07T00:36:56;102962.59;;;-0.65
12126;BMP180;6126;57.908;16.490;2023-05-07T00:39:22;102953.97;;;-0.67
12126;BMP180;6126;57.908;16.490;2023-05-07T00:41:48;102944.47;;;-0.70
12126;BMP180;6126;57.908;16.490;2023-05-07T00:44:14;102951.41;;;-0.67
12126;BMP180;6126;57.908;16.490;2023-05-07T00:46:40;102956.47;;;-0.69
12126;BMP180;6126;57.908;16.490;2023-05-07T00:49:07;102952.09;;;-0.71
12126;BMP180;6126;57.908;16.490;2023-05-07T00:51:33;102946.91;;;-0.73
12126;BMP180;6126;57.908;16.490;2023-05-07T00:54:02;102961.63;;;-0.69
12126;BMP180;6126;57.908;16.490;2023-05-07T00:56:28;102960.63;;;-0.72
12126;BMP180;6126;57.908;16.490;2023-05-07T00:58:55;102964.75;;;-0.76
12126;BMP180;6126;57.908;16.490;2023-05-07T01:01:21;102959.47;;;-0.80
12126;BMP180;6126;57.908;16.490;2023-05-07T01:03:47;102946.69;;;-0.79
12126;BMP180;6126;57.908;16.490;2023-05-07T01:06:13;102954.38;;;-0.79
12126;BMP180;6126;57.908;16.490;2023-05-07T01:08:42;102954.34;;;-0.80
12126;BMP180;6126;57.908;16.490;2023-05-07T01:11:09;102958.53;;;-0.82
12126;BMP180;6126;57.908;16.490;2023-05-07T01:13:37;102964.38;;;-0.86
12126;BMP180;6126;57.908;16.490;2023-05-07T01:16:04;102963.19;;;-0.94
12126;BMP180;6126;57.908;16.490;2023-05-07T01:18:30;102967.25;;;-1.00
12126;BMP180;6126;57.908;16.490;2023-05-07T01:20:59;102969.63;;;-1.05
12126;BMP180;6126;57.908;16.490;2023-05-07T01:23:27;102977.97;;;-1.10
12126;BMP180;6126;57.908;16.490;2023-05-07T01:25:54;102973.38;;;-1.19
12126;BMP180;6126;57.908;16.490;2023-05-07T01:28:20;102973.94;;;-1.25
12126;BMP180;6126;57.908;16.490;2023-05-07T01:30:54;102971.25;;;-1.28
12126;BMP180;6126;57.908;16.490;2023-05-07T01:33:22;102966.19;;;-1.27
12126;BMP180;6126;57.908;16.490;2023-05-07T01:35:53;102968.75;;;-1.27
12126;BMP180;6126;57.908;16.490;2023-05-07T01:38:21;102978.94;;;-1.28
12126;BMP180;6126;57.908;16.490;2023-05-07T01:40:47;102966.94;;;-1.29
12126;BMP180;6126;57.908;16.490;2023-05-07T01:43:13;102972.09;;;-1.29
12126;BMP180;6126;57.908;16.490;2023-05-07T01:45:40;102978.00;;;-1.30
12126;BMP180;6126;57.908;16.490;2023-05-07T01:48:09;102959.94;;;-1.33
12126;BMP180;6126;57.908;16.490;2023-05-07T01:50:36;102967.44;;;-1.38
12126;BMP180;6126;57.908;16.490;2023-05-07T01:53:03;102959.59;;;-1.42
12126;BMP180;6126;57.908;16.490;2023-05-07T01:55:28;102964.44;;;-1.48
12126;BMP180;6126;57.908;16.490;2023-05-07T01:57:54;102976.25;;;-1.53
12126;BMP180;6126;57.908;16.490;2023-05-07T02:00:21;102961.47;;;-1.58
12126;BMP180;6126;57.908;16.490;2023-05-07T02:02:46;102975.00;;;-1.62
12126;BMP180;6126;57.908;16.490;2023-05-07T02:05:12;102984.25;;;-1.66
12126;BMP180;6126;57.908;16.490;2023-05-07T02:07:38;102985.13;;;-1.65
12126;BMP180;6126;57.908;16.490;2023-05-07T02:10:05;102992.00;;;-1.64
12126;BMP180;6126;57.908;16.490;2023-05-07T02:12:31;102977.47;;;-1.64
12126;BMP180;6126;57.908;16.490;2023-05-07T02:14:57;102984.19;;;-1.67
12126;BMP180;6126;57.908;16.490;2023-05-07T02:17:23;102989.13;;;-1.72
12126;BMP180;6126;57.908;16.490;2023-05-07T02:19:49;102985.47;;;-1.77
12126;BMP180;6126;57.908;16.490;2023-05-07T02:22:15;102992.94;;;-1.83
12126;BMP180;6126;57.908;16.490;2023-05-07T02:24:41;102979.13;;;-1.86
12126;BMP180;6126;57.908;16.490;2023-05-07T02:27:07;102981.59;;;-1.87
12126;BMP180;6126;57.908;16.490;2023-05-07T02:29:33;102996.97;;;-1.87
12126;BMP180;6126;57.908;16.490;2023-05-07T02:31:58;102990.25;;;-1.85
12126;BMP180;6126;57.908;16.490;2023-05-07T02:34:24;102989.50;;;-1.83
12126;BMP180;6126;57.908;16.490;2023-05-07T02:36:50;102984.44;;;-1.82
12126;BMP180;6126;57.908;16.490;2023-05-07T02:39:16;102979.38;;;-1.80
12126;BMP180;6126;57.908;16.490;2023-05-07T02:41:42;102982.88;;;-1.78
12126;BMP180;6126;57.908;16.490;2023-05-07T02:44:08;102988.13;;;-1.75
12126;BMP180;6126;57.908;16.490;2023-05-07T02:46:34;102979.59;;;-1.74
12126;BMP180;6126;57.908;16.490;2023-05-07T02:49:00;102987.25;;;-1.76
12126;BMP180;6126;57.908;16.490;2023-05-07T02:51:26;102983.75;;;-1.78
12126;BMP180;6126;57.908;16.490;2023-05-07T02:53:52;102984.56;;;-1.79
12126;BMP180;6126;57.908;16.490;2023-05-07T02:56:18;102985.34;;;-1.80
12126;BMP180;6126;57.908;16.490;2023-05-07T02:58:44;102986.09;;;-1.82
12126;BMP180;6126;57.908;16.490;2023-05-07T03:01:10;102986.72;;;-1.87
12126;BMP180;6126;57.908;16.490;2023-05-07T03:03:37;102980.63;;;-1.91
12126;BMP180;6126;57.908;16.490;2023-05-07T03:06:03;102979.50;;;-1.97
12126;BMP180;6126;57.908;16.490;2023-05-07T03:08:28;102979.22;;;-2.03
12126;BMP180;6126;57.908;16.490;2023-05-07T03:10:54;102995.41;;;-2.04
12126;BMP180;6126;57.908;16.490;2023-05-07T03:13:20;102990.34;;;-2.03
12126;BMP180;6126;57.908;16.490;2023-05-07T03:15:46;102985.28;;;-2.01
12126;BMP180;6126;57.908;16.490;2023-05-07T03:18:12;102981.00;;;-2.02
12126;BMP180;6126;57.908;16.490;2023-05-07T03:20:38;102981.91;;;-2.00
12126;BMP180;6126;57.908;16.490;2023-05-07T03:23:04;102983.56;;;-2.02
12126;BMP180;6126;57.908;16.490;2023-05-07T03:25:32;102981.84;;;-2.02
12126;BMP180;6126;57.908;16.490;2023-05-07T03:27:58;102975.13;;;-2.00
12126;BMP180;6126;57.908;16.490;2023-05-07T03:30:24;102974.38;;;-1.97
12126;BMP180;6126;57.908;16.490;2023-05-07T03:32:50;102983.09;;;-1.92
12126;BMP180;6126;57.908;16.490;2023-05-07T03:35:16;102983.25;;;-1.89
12126;BMP180;6126;57.908;16.490;2023-05-07T03:37:42;102973.91;;;-1.87
12126;BMP180;6126;57.908;16.490;2023-05-07T03:40:08;102987.75;;;-1.84
12126;BMP180;6126;57.908;16.490;2023-05-07T03:42:36;102987.00;;;-1.82
12126;BMP180;6126;57.908;16.490;2023-05-07T03:45:02;102980.22;;;-1.80
12126;BMP180;6126;57.908;16.490;2023-05-07T03:47:28;102986.25;;;-1.79
12126;BMP180;6126;57.908;16.490;2023-05-07T03:49:55;102973.38;;;-1.81
12126;BMP180;6126;57.908;16.490;2023-05-07T03:52:21;102985.34;;;-1.80
12126;BMP180;6126;57.908;16.490;2023-05-07T03:54:52;102975.09;;;-1.80
12126;BMP180;6126;57.908;16.490;2023-05-07T03:57:18;102985.47;;;-1.77
12126;BMP180;6126;57.908;16.490;2023-05-07T03:59:44;102978.72;;;-1.75
12126;BMP180;6126;57.908;16.490;2023-05-07T04:02:10;102986.53;;;-1.72
12126;BMP180;6126;57.908;16.490;2023-05-07T04:04:36;102997.06;;;-1.66
12126;BMP180;6126;57.908;16.490;2023-05-07T04:07:02;102997.25;;;-1.61
12126;BMP180;6126;57.908;16.490;2023-05-07T04:09:28;102982.13;;;-1.55
12126;BMP180;6126;57.908;16.490;2023-05-07T04:11:54;102980.75;;;-1.48
12126;BMP180;6126;57.908;16.490;2023-05-07T04:14:20;102979.28;;;-1.41
12126;BMP180;6126;57.908;16.490;2023-05-07T04:16:46;102981.31;;;-1.33
12126;BMP180;6126;57.908;16.490;2023-05-07T04:19:12;102995.28;;;-0.83
12126;BMP180;6126;57.908;16.490;2023-05-07T04:21:37;102989.78;;;-0.26
12126;BMP180;6126;57.908;16.490;2023-05-07T04:24:04;102993.00;;;0.17
12126;BMP180;6126;57.908;16.490;2023-05-07T04:26:30;102973.63;;;0.52
12126;BMP180;6126;57.908;16.490;2023-05-07T04:28:57;102981.88;;;0.96
12126;BMP180;6126;57.908;16.490;2023-05-07T04:31:24;102990.25;;;1.44
12126;BMP180;6126;57.908;16.490;2023-05-07T04:33:50;102980.66;;;1.40
12126;BMP180;6126;57.908;16.490;2023-05-07T04:36:17;102993.13;;;1.25
12126;BMP180;6126;57.908;16.490;2023-05-07T04:38:43;102995.38;;;1.15
12126;BMP180;6126;57.908;16.490;2023-05-07T04:41:09;102996.78;;;1.06
12126;BMP180;6126;57.908;16.490;2023-05-07T04:43:35;102994.91;;;1.00
12126;BMP180;6126;57.908;16.490;2023-05-07T04:46:01;102986.50;;;1.06
12126;BMP180;6126;57.908;16.490;2023-05-07T04:48:27;102999.22;;;1.29
12126;BMP180;6126;57.908;16.490;2023-05-07T04:50:54;102987.50;;;1.38
12126;BMP180;6126;57.908;16.490;2023-05-07T04:53:20;102994.34;;;1.38
12126;BMP180;6126;57.908;16.490;2023-05-07T04:55:46;102992.66;;;1.38
12126;BMP180;6126;57.908;16.490;2023-05-07T04:58:13;102994.44;;;1.41
12126;BMP180;6126;57.908;16.490;2023-05-07T05:00:39;102992.09;;;1.48
12126;BMP180;6126;57.908;16.490;2023-05-07T05:03:06;102990.50;;;1.53
12126;BMP180;6126;57.908;16.490;2023-05-07T05:05:32;102985.53;;;1.59
12126;BMP180;6126;57.908;16.490;2023-05-07T05:07:58;102994.44;;;1.70
12126;BMP180;6126;57.908;16.490;2023-05-07T05:10:24;102983.69;;;1.85
12126;BMP180;6126;57.908;16.490;2023-05-07T05:12:51;102984.19;;;2.03
12126;BMP180;6126;57.908;16.490;2023-05-07T05:15:17;102988.19;;;2.24
12126;BMP180;6126;57.908;16.490;2023-05-07T05:17:42;102988.88;;;2.51
12126;BMP180;6126;57.908;16.490;2023-05-07T05:20:09;102986.88;;;2.75
12126;BMP180;6126;57.908;16.490;2023-05-07T05:22:38;102991.53;;;2.89
12126;BMP180;6126;57.908;16.490;2023-05-07T05:25:05;102985.75;;;3.00
12126;BMP180;6126;57.908;16.490;2023-05-07T05:27:30;102990.41;;;3.14
12126;BMP180;6126;57.908;16.490;2023-05-07T05:29:56;102989.81;;;3.27
12126;BMP180;6126;57.908;16.490;2023-05-07T05:32:22;102998.81;;;3.44
12126;BMP180;6126;57.908;16.490;2023-05-07T05:34:48;102986.13;;;3.56
12126;BMP180;6126;57.908;16.490;2023-05-07T05:37:14;103004.38;;;3.62
12126;BMP180;6126;57.908;16.490;2023-05-07T05:39:40;102994.19;;;3.70
12126;BMP180;6126;57.908;16.490;2023-05-07T05:42:07;102996.94;;;3.78
12126;BMP180;6126;57.908;16.490;2023-05-07T05:44:32;103002.31;;;3.88
12126;BMP180;6126;57.908;16.490;2023-05-07T05:46:58;103005.94;;;3.98
12126;BMP180;6126;57.908;16.490;2023-05-07T05:49:25;103007.94;;;4.10
12126;BMP180;6126;57.908;16.490;2023-05-07T05:51:51;103005.59;;;4.24
12126;BMP180;6126;57.908;16.490;2023-05-07T05:54:17;102998.06;;;4.37
12126;BMP180;6126;57.908;16.490;2023-05-07T05:56:43;102999.97;;;4.48
12126;BMP180;6126;57.908;16.490;2023-05-07T05:59:09;103007.06;;;4.58
12126;BMP180;6126;57.908;16.490;2023-05-07T06:01:35;103005.53;;;4.70
12126;BMP180;6126;57.908;16.490;2023-05-07T06:04:01;103003.22;;;4.87
12126;BMP180;6126;57.908;16.490;2023-05-07T06:06:27;103003.41;;;5.00
12126;BMP180;6126;57.908;16.490;2023-05-07T06:08:53;103015.66;;;5.11
12126;BMP180;6126;57.908;16.490;2023-05-07T06:11:19;103009.84;;;5.27
12126;BMP180;6126;57.908;16.490;2023-05-07T06:13:45;103007.44;;;5.39
12126;BMP180;6126;57.908;16.490;2023-05-07T06:16:11;102994.56;;;5.48
12126;BMP180;6126;57.908;16.490;2023-05-07T06:18:37;102994.66;;;5.53
12126;BMP180;6126;57.908;16.490;2023-05-07T06:21:03;102993.88;;;5.59
12126;BMP180;6126;57.908;16.490;2023-05-07T06:23:29;102999.16;;;5.66
12126;BMP180;6126;57.908;16.490;2023-05-07T06:25:55;103003.59;;;5.73
12126;BMP180;6126;57.908;16.490;2023-05-07T06:28:21;103005.41;;;5.80
12126;BMP180;6126;57.908;16.490;2023-05-07T06:30:47;102999.41;;;5.85
12126;BMP180;6126;57.908;16.490;2023-05-07T06:33:15;103009.84;;;5.90
12126;BMP180;6126;57.908;16.490;2023-05-07T06:35:41;102997.81;;;5.95
12126;BMP180;6126;57.908;16.490;2023-05-07T06:38:07;103006.50;;;6.01
12126;BMP180;6126;57.908;16.490;2023-05-07T06:40:33;103010.91;;;6.05
12126;BMP180;6126;57.908;16.490;2023-05-07T06:42:59;103005.75;;;6.13
12126;BMP180;6126;57.908;16.490;2023-05-07T06:45:25;103010.19;;;6.22
12126;BMP180;6126;57.908;16.490;2023-05-07T06:47:50;103004.25;;;6.35
12126;BMP180;6126;57.908;16.490;2023-05-07T06:50:16;103018.19;;;6.42
12126;BMP180;6126;57.908;16.490;2023-05-07T06:52:42;103007.91;;;6.52
12126;BMP180;6126;57.908;16.490;2023-05-07T06:55:09;102999.34;;;6.63
12126;BMP180;6126;57.908;16.490;2023-05-07T06:57:34;102998.53;;;6.72
12126;BMP180;6126;57.908;16.490;2023-05-07T07:00:00;103002.91;;;6.78
12126;BMP180;6126;57.908;16.490;2023-05-07T07:02:26;102998.63;;;6.83
12126;BMP180;6126;57.908;16.490;2023-05-07T07:04:52;102998.66;;;6.89
12126;BMP180;6126;57.908;16.490;2023-05-07T07:07:18;103003.91;;;6.95
12126;BMP180;6126;57.908;16.490;2023-05-07T07:09:43;103003.06;;;7.01
12126;BMP180;6126;57.908;16.490;2023-05-07T07:12:09;103001.38;;;7.08
12126;BMP180;6126;57.908;16.490;2023-05-07T07:14:35;103007.50;;;7.16
12126;BMP180;6126;57.908;16.490;2023-05-07T07:17:01;103008.41;;;7.24
12126;BMP180;6126;57.908;16.490;2023-05-07T07:19:27;103008.47;;;7.29
12126;BMP180;6126;57.908;16.490;2023-05-07T07:21:53;103010.22;;;7.34
12126;BMP180;6126;57.908;16.490;2023-05-07T07:24:19;103005.06;;;7.41
12126;BMP180;6126;57.908;16.490;2023-05-07T07:26:47;103014.66;;;7.51
12126;BMP180;6126;57.908;16.490;2023-05-07T07:29:13;103012.97;;;7.56
12126;BMP180;6126;57.908;16.490;2023-05-07T07:31:39;103003.41;;;7.60
12126;BMP180;6126;57.908;16.490;2023-05-07T07:34:05;103012.97;;;7.65
12126;BMP180;6126;57.908;16.490;2023-05-07T07:36:31;103000.88;;;7.70
12126;BMP180;6126;57.908;16.490;2023-05-07T07:38:57;103002.63;;;7.75
12126;BMP180;6126;57.908;16.490;2023-05-07T07:41:22;103000.03;;;7.81
12126;BMP180;6126;57.908;16.490;2023-05-07T07:43:48;103005.28;;;7.87
12126;BMP180;6126;57.908;16.490;2023-05-07T07:46:14;102994.84;;;7.92
12126;BMP180;6126;57.908;16.490;2023-05-07T07:48:40;103000.09;;;7.99
12126;BMP180;6126;57.908;16.490;2023-05-07T07:51:06;102988.00;;;8.07
12126;BMP180;6126;57.908;16.490;2023-05-07T07:53:32;102987.13;;;8.15
12126;BMP180;6126;57.908;16.490;2023-05-07T07:55:58;102985.41;;;8.23
12126;BMP180;6126;57.908;16.490;2023-05-07T07:58:23;102988.91;;;8.34
12126;BMP180;6126;57.908;16.490;2023-05-07T08:00:50;102995.00;;;8.48
12126;BMP180;6126;57.908;16.490;2023-05-07T08:03:16;102995.91;;;8.67
12126;BMP180;6126;57.908;16.490;2023-05-07T08:05:43;102979.38;;;8.79
12126;BMP180;6126;57.908;16.490;2023-05-07T08:08:09;102990.63;;;8.88
12126;BMP180;6126;57.908;16.490;2023-05-07T08:10:35;102985.44;;;8.94
12126;BMP180;6126;57.908;16.490;2023-05-07T08:13:04;102992.38;;;9.01
12126;BMP180;6126;57.908;16.490;2023-05-07T08:15:31;102974.97;;;9.03
12126;BMP180;6126;57.908;16.490;2023-05-07T08:17:58;102980.19;;;9.12
12126;BMP180;6126;57.908;16.490;2023-05-07T08:20:26;102981.03;;;9.21
12126;BMP180;6126;57.908;16.490;2023-05-07T08:22:52;102980.13;;;9.31
12126;BMP180;6126;57.908;16.490;2023-05-07T08:25:17;102975.78;;;9.36
12126;BMP180;6126;57.908;16.490;2023-05-07T08:27:43;102980.06;;;9.47
12126;BMP180;6126;57.908;16.490;2023-05-07T08:30:11;102974.84;;;9.56
12126;BMP180;6126;57.908;16.490;2023-05-07T08:32:37;102967.84;;;9.61
12126;BMP180;6126;57.908;16.490;2023-05-07T08:35:03;102970.38;;;9.71
12126;BMP180;6126;57.908;16.490;2023-05-07T08:37:29;102972.97;;;9.79
12126;BMP180;6126;57.908;16.490;2023-05-07T08:39:55;102973.81;;;9.83
12126;BMP180;6126;57.908;16.490;2023-05-07T08:42:23;102969.44;;;9.91
12126;BMP180;6126;57.908;16.490;2023-05-07T08:44:51;102969.44;;;9.97
12126;BMP180;6126;57.908;16.490;2023-05-07T08:47:23;102985.91;;;10.02
12126;BMP180;6126;57.908;16.490;2023-05-07T08:49:53;102976.31;;;10.13
12126;BMP180;6126;57.908;16.490;2023-05-07T08:52:20;102978.84;;;10.23
12126;BMP180;6126;57.908;16.490;2023-05-07T08:54:46;102970.06;;;10.32
12126;BMP180;6126;57.908;16.490;2023-05-07T08:57:13;102963.09;;;10.31
12126;BMP180;6126;57.908;16.490;2023-05-07T08:59:40;102963.91;;;10.39
12126;BMP180;6126;57.908;16.490;2023-05-07T09:02:10;102962.06;;;10.52
12126;BMP180;6126;57.908;16.490;2023-05-07T09:04:37;102961.03;;;10.70
12126;BMP180;6126;57.908;16.490;2023-05-07T09:07:03;102962.72;;;10.77
12126;BMP180;6126;57.908;16.490;2023-05-07T09:09:33;102955.69;;;10.81
12126;BMP180;6126;57.908;16.490;2023-05-07T09:11:59;102956.53;;;10.85
12126;BMP180;6126;57.908;16.490;2023-05-07T09:14:26;102961.78;;;10.82
12126;BMP180;6126;57.908;16.490;2023-05-07T09:16:56;102958.38;;;10.74
12126;BMP180;6126;57.908;16.490;2023-05-07T09:19:27;102961.06;;;10.68
12126;BMP180;6126;57.908;16.490;2023-05-07T09:22:03;102965.44;;;10.68
12126;BMP180;6126;57.908;16.490;2023-05-07T09:24:30;102953.22;;;10.68
12126;BMP180;6126;57.908;16.490;2023-05-07T09:27:01;102954.94;;;10.71
12126;BMP180;6126;57.908;16.490;2023-05-07T09:29:28;102960.09;;;10.77
12126;BMP180;6126;57.908;16.490;2023-05-07T09:31:56;102953.06;;;10.80
12126;BMP180;6126;57.908;16.490;2023-05-07T09:34:22;102957.44;;;10.81
12126;BMP180;6126;57.908;16.490;2023-05-07T09:36:48;102956.53;;;10.85
12126;BMP180;6126;57.908;16.490;2023-05-07T09:39:14;102945.13;;;10.92
12126;BMP180;6126;57.908;16.490;2023-05-07T09:41:45;102941.59;;;10.97
12126;BMP180;6126;57.908;16.490;2023-05-07T09:44:11;102945.03;;;11.02
12126;BMP180;6126;57.908;16.490;2023-05-07T09:46:39;102938.84;;;11.07
12126;BMP180;6126;57.908;16.490;2023-05-07T09:49:12;102938.81;;;11.10
12126;BMP180;6126;57.908;16.490;2023-05-07T09:51:52;102926.59;;;11.11
12126;BMP180;6126;57.908;16.490;2023-05-07T09:54:18;102939.63;;;11.15
12126;BMP180;6126;57.908;16.490;2023-05-07T09:56:48;102936.13;;;11.16
12126;BMP180;6126;57.908;16.490;2023-05-07T09:59:16;102938.72;;;11.19
12126;BMP180;6126;57.908;16.490;2023-05-07T10:01:43;102936.13;;;11.18
12126;BMP180;6126;57.908;16.490;2023-05-07T10:04:13;102929.13;;;11.20
12126;BMP180;6126;57.908;16.490;2023-05-07T10:06:40;102930.81;;;11.24
12126;BMP180;6126;57.908;16.490;2023-05-07T10:09:08;102930.84;;;11.22
12126;BMP180;6126;57.908;16.490;2023-05-07T10:11:35;102929.91;;;11.26
12126;BMP180;6126;57.908;16.490;2023-05-07T10:14:04;102922.81;;;11.34
12126;BMP180;6126;57.908;16.490;2023-05-07T10:16:36;102914.88;;;11.40
12126;BMP180;6126;57.908;16.490;2023-05-07T10:19:08;102916.59;;;11.47
12126;BMP180;6126;57.908;16.490;2023-05-07T10:21:39;102905.19;;;11.51
12126;BMP180;6126;57.908;16.490;2023-05-07T10:24:22;102910.41;;;11.54
12126;BMP180;6126;57.908;16.490;2023-05-07T10:26:53;102903.34;;;11.57
12126;BMP180;6126;57.908;16.490;2023-05-07T10:34:48;102904.94;;;11.69
12126;BMP180;6126;57.908;16.490;2023-05-07T10:37:16;102906.66;;;11.71
12126;BMP180;6126;57.908;16.490;2023-05-07T10:39:42;102915.31;;;11.77
12126;BMP180;6126;57.908;16.490;2023-05-07T10:42:10;102908.31;;;11.78
12126;BMP180;6126;57.908;16.490;2023-05-07T10:44:36;102910.06;;;11.77
12126;BMP180;6126;57.908;16.490;2023-05-07T10:47:10;102909.09;;;11.84
12126;BMP180;6126;57.908;16.490;2023-05-07T10:52:21;102915.22;;;11.83
12126;BMP180;6126;57.908;16.490;2023-05-07T10:54:47;102910.00;;;11.82
12126;BMP180;6126;57.908;16.490;2023-05-07T10:59:57;102897.00;;;11.74
12126;BMP180;6126;57.908;16.490;2023-05-07T11:05:26;102901.44;;;11.70
12126;BMP180;6126;57.908;16.490;2023-05-07T11:08:00;102892.78;;;11.65
12126;BMP180;6126;57.908;16.490;2023-05-07T11:10:52;102891.97;;;11.61
12126;BMP180;6126;57.908;16.490;2023-05-07T11:13:42;102901.59;;;11.58
12126;BMP180;6126;57.908;16.490;2023-05-07T11:16:25;102891.16;;;11.55
12126;BMP180;6126;57.908;16.490;2023-05-07T11:18:55;102893.72;;;11.59
12126;BMP180;6126;57.908;16.490;2023-05-07T11:21:35;102881.50;;;11.61
12126;BMP180;6126;57.908;16.490;2023-05-07T11:24:03;102880.53;;;11.67
12126;BMP180;6126;57.908;16.490;2023-05-07T11:26:41;102884.03;;;11.66
12126;BMP180;6126;57.908;16.490;2023-05-07T11:29:19;102880.63;;;11.58
12126;BMP180;6126;57.908;16.490;2023-05-07T11:31:58;102881.69;;;11.46
12126;BMP180;6126;57.908;16.490;2023-05-07T11:34:26;102880.88;;;11.43
12126;BMP180;6126;57.908;16.490;2023-05-07T11:36:53;102882.59;;;11.39
12126;BMP180;6126;57.908;16.490;2023-05-07T11:39:31;102877.44;;;11.35
12126;BMP180;6126;57.908;16.490;2023-05-07T11:41:59;102872.22;;;11.32
12126;BMP180;6126;57.908;16.490;2023-05-07T11:44:42;102868.75;;;11.32
12126;BMP180;6126;57.908;16.490;2023-05-07T11:47:08;102872.22;;;11.32
12126;BMP180;6126;57.908;16.490;2023-05-07T11:49:35;102867.84;;;11.34
12126;BMP180;6126;57.908;16.490;2023-05-07T11:52:01;102869.59;;;11.34
12126;BMP180;6126;57.908;16.490;2023-05-07T11:54:37;102868.69;;;11.36
12126;BMP180;6126;57.908;16.490;2023-05-07T11:57:03;102866.09;;;11.35
12126;BMP180;6126;57.908;16.490;2023-05-07T11:59:29;102874.84;;;11.35
12126;BMP180;6126;57.908;16.490;2023-05-07T12:01:58;102869.56;;;11.37
12126;BMP180;6126;57.908;16.490;2023-05-07T12:04:30;102870.41;;;11.37
12126;BMP180;6126;57.908;16.490;2023-05-07T12:06:56;102859.06;;;11.38
12126;BMP180;6126;57.908;16.490;2023-05-07T12:09:22;102865.16;;;11.43
12126;BMP180;6126;57.908;16.490;2023-05-07T12:11:48;102868.56;;;11.48
12126;BMP180;6126;57.908;16.490;2023-05-07T12:14:15;102861.53;;;11.50
12126;BMP180;6126;57.908;16.490;2023-05-07T12:16:45;102861.50;;;11.53
12126;BMP180;6126;57.908;16.490;2023-05-07T12:19:11;102856.97;;;11.65
12126;BMP180;6126;57.908;16.490;2023-05-07T12:21:40;102852.53;;;11.71
12126;BMP180;6126;57.908;16.490;2023-05-07T12:24:07;102861.25;;;11.70
12126;BMP180;6126;57.908;16.490;2023-05-07T12:26:40;102855.16;;;11.70
12126;BMP180;6126;57.908;16.490;2023-05-07T12:29:07;102849.06;;;11.70
12126;BMP180;6126;57.908;16.490;2023-05-07T12:31:33;102852.53;;;11.71
12126;BMP180;6126;57.908;16.490;2023-05-07T12:33:59;102840.19;;;11.78
12126;BMP180;6126;57.908;16.490;2023-05-07T12:36:25;102843.59;;;11.84
12126;BMP180;6126;57.908;16.490;2023-05-07T12:38:51;102852.22;;;11.89
12126;BMP180;6126;57.908;16.490;2023-05-07T12:41:17;102846.97;;;11.91
12126;BMP180;6126;57.908;16.490;2023-05-07T12:43:44;102852.19;;;11.92
12126;BMP180;6126;57.908;16.490;2023-05-07T12:46:11;102853.03;;;11.94
12126;BMP180;6126;57.908;16.490;2023-05-07T12:48:44;102843.22;;;12.05
12126;BMP180;6126;57.908;16.490;2023-05-07T12:51:12;102835.22;;;12.14
12126;BMP180;6126;57.908;16.490;2023-05-07T12:53:42;102837.78;;;12.17
12126;BMP180;6126;57.908;16.490;2023-05-07T12:56:09;102836.81;;;12.22
12126;BMP180;6126;57.908;16.490;2023-05-07T12:58:36;102834.88;;;12.33
12126;BMP180;6126;57.908;16.490;2023-05-07T13:01:07;102833.84;;;12.41
12126;BMP180;6126;57.908;16.490;2023-05-07T13:03:37;102825.91;;;12.47
12126;BMP180;6126;57.908;16.490;2023-05-07T13:06:07;102828.47;;;12.50
12126;BMP180;6126;57.908;16.490;2023-05-07T13:08:40;102819.69;;;12.51
12126;BMP180;6126;57.908;16.490;2023-05-07T13:11:08;102830.16;;;12.53
12126;BMP180;6126;57.908;16.490;2023-05-07T13:13:36;102815.28;;;12.52
12126;BMP180;6126;57.908;16.490;2023-05-07T13:16:04;102816.25;;;12.49
12126;BMP180;6126;57.908;16.490;2023-05-07T13:18:33;102814.50;;;12.48
12126;BMP180;6126;57.908;16.490;2023-05-07T13:21:00;102815.41;;;12.47
12126;BMP180;6126;57.908;16.490;2023-05-07T13:23:27;102819.75;;;12.48
12126;BMP180;6126;57.908;16.490;2023-05-07T13:25:53;102811.03;;;12.46
12126;BMP180;6126;57.908;16.490;2023-05-07T13:28:24;102818.03;;;12.47
12126;BMP180;6126;57.908;16.490;2023-05-07T13:30:50;102810.94;;;12.52
12126;BMP180;6126;57.908;16.490;2023-05-07T13:33:17;102806.47;;;12.57
12126;BMP180;6126;57.908;16.490;2023-05-07T13:35:44;102808.91;;;12.66
12126;BMP180;6126;57.908;16.490;2023-05-07T13:38:10;102803.47;;;12.75
12126;BMP180;6126;57.908;16.490;2023-05-07T13:40:36;102796.47;;;12.77
12126;BMP180;6126;57.908;16.490;2023-05-07T13:43:02;102790.47;;;12.70
12126;BMP180;6126;57.908;16.490;2023-05-07T13:45:30;102797.44;;;12.70
12126;BMP180;6126;57.908;16.490;2023-05-07T13:47:57;102797.41;;;12.73
12126;BMP180;6126;57.908;16.490;2023-05-07T13:50:23;102796.34;;;12.83
12126;BMP180;6126;57.908;16.490;2023-05-07T13:52:49;102800.59;;;12.88
12126;BMP180;6126;57.908;16.490;2023-05-07T13:55:22;102796.25;;;12.89
12126;BMP180;6126;57.908;16.490;2023-05-07T13:57:56;102806.75;;;12.89
12126;BMP180;6126;57.908;16.490;2023-05-07T14:00:23;102797.03;;;12.92
12126;BMP180;6126;57.908;16.490;2023-05-07T14:02:49;102790.88;;;12.94
12126;BMP180;6126;57.908;16.490;2023-05-07T14:05:15;102776.91;;;12.93
12126;BMP180;6126;57.908;16.490;2023-05-07T14:07:41;102779.50;;;12.94
12126;BMP180;6126;57.908;16.490;2023-05-07T14:10:07;102779.44;;;12.97
12126;BMP180;6126;57.908;16.490;2023-05-07T14:12:34;102769.88;;;12.94
12126;BMP180;6126;57.908;16.490;2023-05-07T14:15:00;102766.34;;;12.95